Time;durP1;ratioP1;P1;durP2;ratioP2;P2;SDS_P1;SDS_P2;PMS_P1;PMS_P2;Temp;Humidity;BMP_temperature;BMP_pressure;BME280_temperature;BME280_humidity;BME280_pressure;Samples;Min_cycle;Max_cycle;Signal;HPM_P1;HPM_P2
2022/04/17 00:03:09;;;;;;;14.03;6.67;;;3.70;99.90;;;;;;10329966;28;20205;-78
2022/04/17 00:08:30;;;;;;;14.00;6.40;;;3.80;99.90;;;;;;10286891;28;20243;-78
2022/04/17 00:13:51;;;;;;;10.87;5.33;;;3.80;99.90;;;;;;10345982;28;20273;-79
2022/04/17 00:19:13;;;;;;;9.83;5.33;;;3.80;99.90;;;;;;10331659;28;20212;-79
2022/04/17 00:24:34;;;;;;;8.50;4.33;;;3.80;99.90;;;;;;10329602;28;20580;-79
2022/04/17 00:29:56;;;;;;;8.60;4.90;;;3.70;99.90;;;;;;10299557;28;20305;-79
2022/04/17 00:35:17;;;;;;;8.30;4.87;;;3.70;99.90;;;;;;10330557;28;20240;-79
2022/04/17 00:40:39;;;;;;;10.50;4.47;;;3.60;99.90;;;;;;10321353;28;20220;-79
2022/04/17 00:46:02;;;;;;;6.97;3.53;;;3.60;99.90;;;;;;10321406;28;20190;-79
2022/04/17 00:51:24;;;;;;;6.80;3.10;;;3.50;99.90;;;;;;10306539;28;20230;-79
2022/04/17 00:56:48;;;;;;;4.43;3.20;;;3.50;99.90;;;;;;10336476;28;20210;-79
2022/04/17 01:02:11;;;;;;;3.77;2.70;;;3.60;99.90;;;;;;10336038;28;20202;-80
2022/04/17 01:07:32;;;;;;;4.50;2.77;;;3.50;99.90;;;;;;10306042;28;20206;-79
2022/04/17 01:12:58;;;;;;;6.83;3.23;;;3.40;99.90;;;;;;10360928;28;20251;-79
2022/04/17 01:18:19;;;;;;;4.93;3.40;;;3.40;99.90;;;;;;10345338;28;20201;-78
2022/04/17 01:29:20;;;;;;;7.23;3.60;;;3.40;99.90;;;;;;10319256;28;20536;-78
2022/04/17 01:34:42;;;;;;;6.83;3.73;;;3.40;99.90;;;;;;10334680;28;20575;-78
2022/04/17 01:40:04;;;;;;;6.73;4.43;;;3.50;99.90;;;;;;10334928;28;20518;-77
2022/04/17 01:45:26;;;;;;;6.47;4.73;;;3.50;99.90;;;;;;10304599;28;20208;-79
2022/04/17 01:50:48;;;;;;;5.57;3.57;;;3.50;99.90;;;;;;10334407;28;20237;-78
2022/04/17 01:56:09;;;;;;;7.50;4.37;;;3.50;99.90;;;;;;10304140;28;20193;-78
2022/04/17 02:01:38;;;;;;;6.63;3.93;;;3.40;99.90;;;;;;10333833;28;20205;-79
2022/04/17 02:07:00;;;;;;;8.87;4.83;;;3.40;99.90;;;;;;10305039;28;20191;-78
2022/04/17 02:12:22;;;;;;;5.70;3.90;;;3.40;99.90;;;;;;10353895;28;20414;-78
2022/04/17 02:17:43;;;;;;;7.67;4.87;;;3.40;99.90;;;;;;10331504;28;20197;-77
2022/04/17 02:23:04;;;;;;;8.97;4.87;;;3.40;99.90;;;;;;10335341;28;20203;-78
2022/04/17 02:28:27;;;;;;;8.30;5.37;;;3.40;99.90;;;;;;10317177;28;20210;-78
2022/04/17 02:33:48;;;;;;;10.17;5.30;;;3.40;99.90;;;;;;10317983;28;20531;-78
2022/04/17 02:39:10;;;;;;;7.07;4.97;;;3.50;99.90;;;;;;10321080;28;20194;-78
2022/04/17 02:44:31;;;;;;;7.53;4.63;;;3.50;99.90;;;;;;10318346;28;20426;-78
2022/04/17 02:49:52;;;;;;;14.93;8.33;;;3.50;99.90;;;;;;10332179;28;20239;-77
2022/04/17 02:55:13;;;;;;;11.37;6.70;;;3.40;99.90;;;;;;10316523;28;20201;-78
2022/04/17 03:05:35;;;;;;;10.00;6.53;;;3.50;99.90;;;;;;10315222;28;20197;-77
2022/04/17 03:06:16;;;;;;;12.97;7.47;;;3.50;99.90;;;;;;10331458;28;20228;-78
2022/04/17 03:11:37;;;;;;;13.77;7.40;;;3.50;99.90;;;;;;10330519;28;20213;-80
2022/04/17 03:16:59;;;;;;;10.27;5.83;;;3.50;99.90;;;;;;10365403;28;20205;-79
2022/04/17 03:22:25;;;;;;;12.17;7.57;;;3.60;99.90;;;;;;10340716;28;20220;-79
2022/04/17 03:27:47;;;;;;;15.67;9.73;;;3.50;99.90;;;;;;10315085;28;20190;-79
2022/04/17 03:33:08;;;;;;;17.37;10.13;;;3.50;99.90;;;;;;10318345;28;20230;-79
2022/04/17 03:38:29;;;;;;;16.70;8.73;;;3.50;99.90;;;;;;10300712;28;20229;-78
2022/04/17 03:43:51;;;;;;;16.63;9.20;;;3.50;99.90;;;;;;10300571;28;20280;-78
2022/04/17 03:49:12;;;;;;;20.63;9.37;;;3.40;99.90;;;;;;10330248;28;20532;-79
2022/04/17 03:54:33;;;;;;;12.90;8.70;;;3.40;99.90;;;;;;10314541;28;20186;-78
2022/04/17 03:59:55;;;;;;;17.47;8.50;;;3.30;99.90;;;;;;10315060;28;20202;-78
2022/04/17 04:05:18;;;;;;;13.17;8.20;;;3.30;99.90;;;;;;10330146;28;20492;-79
2022/04/17 04:10:39;;;;;;;10.03;6.90;;;3.20;99.90;;;;;;10337633;28;20627;-78
2022/04/17 04:16:01;;;;;;;11.40;6.83;;;3.30;99.90;;;;;;10376274;28;20201;-78
2022/04/17 04:21:23;;;;;;;19.87;10.47;;;3.40;99.90;;;;;;10332218;28;20226;-78
2022/04/17 04:26:44;;;;;;;21.23;10.40;;;3.40;99.90;;;;;;10337409;28;20200;-78
2022/04/17 04:32:06;;;;;;;16.33;8.50;;;3.50;99.90;;;;;;10308026;28;20249;-79
2022/04/17 04:37:28;;;;;;;13.83;7.67;;;3.60;99.90;;;;;;10321635;28;20233;-79
2022/04/17 04:42:57;;;;;;;11.30;5.40;;;3.80;99.90;;;;;;10307049;28;20199;-79
2022/04/17 04:49:29;;;;;;;9.47;5.70;;;3.80;99.90;;;;;;10336833;28;20306;-79
2022/04/17 04:53:59;;;;;;;11.47;5.90;;;4.10;99.90;;;;;;10320047;28;20483;-78
2022/04/17 04:59:21;;;;;;;5.83;4.50;;;4.30;99.90;;;;;;10336333;28;20211;-79
2022/04/17 05:04:42;;;;;;;9.37;5.27;;;4.40;99.90;;;;;;10320251;28;20524;-79
2022/04/17 05:10:07;;;;;;;5.97;4.40;;;4.50;99.90;;;;;;10307986;28;20239;-79
2022/04/17 05:15:30;;;;;;;7.70;4.53;;;4.70;99.90;;;;;;10376245;28;20195;-79
2022/04/17 05:20:51;;;;;;;9.93;5.90;;;4.80;99.90;;;;;;10319650;28;20264;-80
2022/04/17 05:26:12;;;;;;;14.87;8.23;;;4.90;99.90;;;;;;10320369;28;20193;-79
2022/04/17 05:31:34;;;;;;;22.33;10.77;;;5.00;99.90;;;;;;10319943;28;20228;-78
2022/04/17 05:36:56;;;;;;;17.53;9.53;;;5.20;99.90;;;;;;10291464;28;20318;-78
2022/04/17 05:42:18;;;;;;;16.47;10.50;;;5.50;99.90;;;;;;10305330;28;20218;-78
2022/04/17 05:47:39;;;;;;;17.17;9.77;;;5.70;99.90;;;;;;10319472;28;20205;-79
2022/04/17 05:53:01;;;;;;;15.17;8.93;;;5.80;99.90;;;;;;10304046;28;20299;-79
2022/04/17 05:58:22;;;;;;;17.50;8.30;;;6.00;99.90;;;;;;10318375;28;20200;-80
2022/04/17 06:03:44;;;;;;;12.03;6.90;;;6.20;99.90;;;;;;10317835;28;20197;-78
2022/04/17 06:09:06;;;;;;;9.17;6.30;;;6.40;99.90;;;;;;10320093;28;20228;-79
2022/04/17 06:14:27;;;;;;;11.47;6.70;;;6.70;99.90;;;;;;10371122;28;20208;-80
2022/04/17 06:19:48;;;;;;;16.37;9.20;;;6.80;99.90;;;;;;10348655;28;20336;-78
2022/04/17 06:25:13;;;;;;;18.43;9.40;;;7.10;99.50;;;;;;10333321;28;20211;-79
2022/04/17 06:30:34;;;;;;;24.07;13.63;;;7.40;98.20;;;;;;10317905;28;20225;-79
2022/04/17 06:35:56;;;;;;;29.33;17.57;;;8.00;94.40;;;;;;10331379;28;20244;-79
2022/04/17 06:41:17;;;;;;;14.70;8.73;;;8.50;85.00;;;;;;10330283;28;20192;-79
2022/04/17 06:46:41;;;;;;;6.03;3.93;;;9.00;64.60;;;;;;10332362;28;20205;-79
2022/04/17 06:52:03;;;;;;;7.83;4.40;;;9.80;50.60;;;;;;10331130;28;20232;-78
2022/04/17 06:57:33;;;;;;;3.90;2.30;;;10.70;48.10;;;;;;10302457;28;20198;-79
2022/04/17 07:02:54;;;;;;;3.70;1.95;;;11.50;35.00;;;;;;10316526;28;20193;-78
2022/04/17 07:08:16;;;;;;;3.37;1.97;;;11.70;29.90;;;;;;10316392;28;20225;-79
2022/04/17 07:13:39;;;;;;;4.07;2.17;;;11.80;27.90;;;;;;10362563;28;20257;-81
2022/04/17 07:19:01;;;;;;;4.13;2.90;;;12.00;27.20;;;;;;10333186;28;20210;-78
2022/04/17 07:24:24;;;;;;;4.55;2.83;;;12.00;26.40;;;;;;10318457;28;20275;-80
2022/04/17 07:29:46;;;;;;;5.40;3.13;;;12.10;27.10;;;;;;10333001;28;20260;-80
2022/04/17 07:35:09;;;;;;;5.95;4.15;;;12.40;27.20;;;;;;10302842;28;20235;-79
2022/04/17 07:40:32;;;;;;;10.68;6.70;;;12.80;26.20;;;;;;10314736;28;20202;-79
2022/04/17 07:45:54;;;;;;;65.03;41.60;;;13.30;25.40;;;;;;10328113;28;20209;-80
2022/04/17 07:51:15;;;;;;;4.15;3.58;;;;;;;;;;10327786;28;20264;-79
2022/04/17 07:56:37;;;;;;;12.95;5.07;;;;;;;;;;10314006;28;20201;-79
2022/04/17 08:02:11;;;;;;;5.25;3.10;;;15.80;18.20;;;;;;10313863;28;20205;-79
2022/04/17 08:07:33;;;;;;;2.67;1.60;;;16.60;16.60;;;;;;10330094;28;20201;-78
2022/04/17 08:12:54;;;;;;;2.70;1.83;;;17.00;15.70;;;;;;10338733;28;20225;-78
2022/04/17 08:18:16;;;;;;;2.35;1.20;;;17.30;14.90;;;;;;10339768;28;20209;-79
2022/04/17 08:23:37;;;;;;;2.30;1.83;;;17.60;14.00;;;;;;10333633;28;20252;-79
2022/04/17 08:28:59;;;;;;;2.10;1.50;;;17.90;13.50;;;;;;10314166;28;20200;-80
2022/04/17 08:34:21;;;;;;;2.72;1.45;;;18.10;13.20;;;;;;10314022;28;20481;-78
2022/04/17 08:39:42;;;;;;;4.25;2.20;;;18.60;12.70;;;;;;10327146;28;20201;-78
2022/04/17 08:45:05;;;;;;;2.55;1.70;;;18.80;12.60;;;;;;10326719;28;20266;-78
2022/04/17 08:50:26;;;;;;;2.50;1.55;;;18.90;11.70;;;;;;10312663;28;20229;-79
2022/04/17 08:55:49;;;;;;;3.85;2.42;;;18.70;12.10;;;;;;10313502;28;20194;-78
2022/04/17 09:01:17;;;;;;;5.75;3.75;;;19.00;11.60;;;;;;10336232;28;20505;-79
2022/04/17 09:06:40;;;;;;;2.72;1.58;;;19.00;11.50;;;;;;10320236;28;20190;-79
2022/04/17 09:12:01;;;;;;;3.28;1.90;;;18.60;11.80;;;;;;10337404;28;20244;-79
2022/04/17 09:17:34;;;;;;;2.83;2.08;;;19.50;10.90;;;;;;10352062;28;20197;-78
2022/04/17 09:23:01;;;;;;;2.17;1.63;;;20.10;10.60;;;;;;10337289;28;20497;-79
2022/04/17 09:28:34;;;;;;;4.20;1.90;;;20.60;7.70;;;;;;10335222;28;20210;-79
2022/04/17 09:34:07;;;;;;;2.88;2.25;;;20.80;7.70;;;;;;10319949;28;20293;-79
2022/04/17 09:39:35;;;;;;;11.27;7.97;;;20.80;7.50;;;;;;10320008;28;20198;-78
2022/04/17 09:44:57;;;;;;;3.35;2.05;;;21.20;7.50;;;;;;10332271;28;20218;-78
2022/04/17 09:50:35;;;;;;;3.47;2.72;;;21.20;6.80;;;;;;10319198;28;20301;-79
2022/04/17 09:56:06;;;;;;;2.92;1.77;;;21.20;7.70;;;;;;10318330;28;20493;-79
2022/04/17 10:01:28;;;;;;;3.53;2.15;;;21.80;7.10;;;;;;10304734;28;20461;-80
2022/04/17 10:06:52;;;;;;;3.65;1.90;;;21.90;6.70;;;;;;10318783;28;20445;-79
2022/04/17 10:12:19;;;;;;;1.73;1.35;;;22.10;6.50;;;;;;10323763;28;20228;-79
2022/04/17 10:17:45;;;;;;;1.60;1.30;;;21.80;6.30;;;;;;10347101;28;20191;-79
2022/04/17 10:23:11;;;;;;;5.65;3.08;;;21.30;7.00;;;;;;10331306;28;20401;-79
2022/04/17 10:28:43;;;;;;;6.07;2.70;;;21.10;7.90;;;;;;10333329;28;20234;-79
2022/04/17 10:34:22;;;;;;;5.40;1.83;;;21.20;7.40;;;;;;10316916;28;20277;-79
2022/04/17 10:39:50;;;;;;;5.35;1.30;;;21.30;8.10;;;;;;10316613;28;20359;-79
2022/04/17 10:45:12;;;;;;;6.72;2.42;;;21.20;7.30;;;;;;10317354;28;20201;-79
2022/04/17 10:50:45;;;;;;;2.25;1.20;;;21.10;7.90;;;;;;10318400;28;20265;-78
2022/04/17 10:56:14;;;;;;;1.50;1.40;;;20.50;8.10;;;;;;10302337;28;20414;-79
2022/04/17 11:01:45;;;;;;;1.42;1.20;;;20.60;8.40;;;;;;10329890;28;20218;-79
2022/04/17 11:07:06;;;;;;;2.22;1.52;;;21.00;8.40;;;;;;10316423;28;20504;-79
2022/04/17 11:12:28;;;;;;;2.17;1.48;;;21.60;7.70;;;;;;10352306;28;20268;-78
2022/04/17 11:17:50;;;;;;;2.30;1.50;;;22.10;7.50;;;;;;10342717;28;20201;-78
2022/04/17 11:23:11;;;;;;;5.03;3.13;;;22.20;7.70;;;;;;10330210;28;20226;-79
2022/04/17 11:28:35;;;;;;;4.15;2.60;;;22.10;7.70;;;;;;10287692;28;20198;-78
2022/04/17 11:34:00;;;;;;;3.38;2.53;;;22.10;7.40;;;;;;10330758;28;20234;-79
2022/04/17 11:39:28;;;;;;;2.05;1.50;;;22.30;7.90;;;;;;10234870;29;20194;-79
2022/04/17 11:44:50;;;;;;;3.42;2.13;;;21.90;7.90;;;;;;10235711;29;20279;-78
2022/04/17 11:50:28;;;;;;;1.85;1.30;;;21.70;8.20;;;;;;10235341;29;20321;-79
2022/04/17 11:55:50;;;;;;;4.35;2.28;;;21.50;7.90;;;;;;10235111;29;20192;-79
2022/04/17 12:01:22;;;;;;;2.00;1.35;;;20.70;8.60;;;;;;10220975;29;20200;-79
2022/04/17 12:06:44;;;;;;;1.75;1.10;;;21.10;8.50;;;;;;10220627;29;20207;-79
2022/04/17 12:12:13;;;;;;;1.60;1.23;;;20.20;8.90;;;;;;10253080;29;20600;-79
2022/04/17 12:17:35;;;;;;;1.65;1.10;;;20.30;9.10;;;;;;10263424;29;20199;-79
2022/04/17 12:22:56;;;;;;;1.80;1.60;;;20.50;9.30;;;;;;10228838;28;20507;-78
2022/04/17 12:28:20;;;;;;;2.95;1.67;;;19.80;9.20;;;;;;10210654;29;20514;-79
2022/04/17 12:33:42;;;;;;;2.10;1.80;;;18.90;10.70;;;;;;10215109;29;20236;-78
2022/04/17 12:39:04;;;;;;;2.92;1.90;;;19.20;11.00;;;;;;10203213;29;20486;-79
2022/04/17 12:44:33;;;;;;;3.58;1.50;;;18.80;11.50;;;;;;10201696;29;20204;-80
2022/04/17 12:50:09;;;;;;;3.13;1.60;;;18.90;11.20;;;;;;10210722;29;20238;-79
2022/04/17 12:55:37;;;;;;;1.92;1.23;;;19.20;10.70;;;;;;10240809;29;20204;-78
2022/04/17 13:00:58;;;;;;;3.17;1.20;;;18.50;11.40;;;;;;10241666;29;20203;-79
2022/04/17 13:06:23;;;;;;;4.35;1.70;;;17.80;11.80;;;;;;10253398;29;20192;-79
2022/04/17 13:11:52;;;;;;;3.22;1.52;;;18.10;11.80;;;;;;10242059;29;20485;-79
2022/04/17 13:17:13;;;;;;;2.63;1.40;;;18.30;11.60;;;;;;10285602;28;20203;-79
2022/04/17 13:22:35;;;;;;;3.92;1.65;;;18.20;11.70;;;;;;10241928;29;20230;-79
2022/04/17 13:27:56;;;;;;;2.63;1.50;;;17.40;12.40;;;;;;10239626;29;20200;-79
2022/04/17 13:33:17;;;;;;;1.50;1.35;;;17.40;12.80;;;;;;10225730;29;20235;-79
2022/04/17 13:38:39;;;;;;;3.92;1.48;;;17.60;12.30;;;;;;10313611;28;20528;-79
2022/04/17 13:44:01;;;;;;;2.03;1.23;;;17.20;12.80;;;;;;10334350;28;20280;-78
2022/04/17 13:49:23;;;;;;;2.20;1.20;;;16.80;13.30;;;;;;10320845;28;20209;-79
2022/04/17 13:54:44;;;;;;;5.28;1.70;;;16.20;13.70;;;;;;10318528;28;20259;-78
2022/04/17 14:00:06;;;;;;;2.65;1.52;;;15.90;14.20;;;;;;10319135;28;20488;-79
2022/04/17 14:05:34;;;;;;;2.38;1.55;;;15.80;14.20;;;;;;10333892;28;20221;-80
2022/04/17 14:10:56;;;;;;;3.65;2.63;;;15.90;14.20;;;;;;10313358;28;20232;-79
2022/04/17 14:16:17;;;;;;;5.93;4.07;;;15.80;14.60;;;;;;10358668;28;20196;-80
2022/04/17 14:21:39;;;;;;;3.20;1.50;;;15.80;14.70;;;;;;10330591;28;20207;-78
2022/04/17 14:27:00;;;;;;;1.30;1.10;;;15.70;14.60;;;;;;10317274;28;20193;-80
2022/04/17 14:32:21;;;;;;;1.40;1.05;;;15.70;14.70;;;;;;10316790;28;20512;-79
2022/04/17 14:37:43;;;;;;;2.97;1.23;;;15.70;14.80;;;;;;10317552;28;20454;-78
2022/04/17 14:43:04;;;;;;;1.38;1.00;;;15.80;14.90;;;;;;10317493;28;20352;-79
2022/04/17 14:48:26;;;;;;;1.98;1.23;;;15.70;14.60;;;;;;10317030;28;20202;-79
2022/04/17 14:53:48;;;;;;;2.10;1.40;;;15.20;14.60;;;;;;10276360;28;20274;-79
2022/04/17 14:59:10;;;;;;;4.05;1.40;;;14.80;14.90;;;;;;10276731;28;20224;-79
2022/04/17 15:04:31;;;;;;;2.67;1.80;;;14.70;15.30;;;;;;10292257;28;20275;-79
2022/04/17 15:09:52;;;;;;;8.00;3.80;;;14.80;15.40;;;;;;10276160;28;20204;-79
2022/04/17 15:15:14;;;;;;;2.08;1.75;;;14.80;15.50;;;;;;10356280;28;20193;-79
2022/04/17 15:20:35;;;;;;;3.67;2.00;;;14.70;15.60;;;;;;10334195;28;20223;-79
2022/04/17 15:25:57;;;;;;;2.15;1.48;;;;;;;;;;10371671;28;20203;-79
2022/04/17 15:31:20;;;;;;;3.05;2.13;;;14.20;15.90;;;;;;10354905;28;20252;-79
2022/04/17 15:36:42;;;;;;;4.03;2.30;;;14.10;16.40;;;;;;10355828;28;20396;-79
2022/04/17 15:42:04;;;;;;;3.00;1.83;;;14.10;16.70;;;;;;10355744;28;20204;-79
2022/04/17 15:53:06;;;;;;;5.10;3.30;;;14.00;16.90;;;;;;10329892;28;20233;-79
2022/04/17 15:58:28;;;;;;;6.25;3.28;;;13.90;17.10;;;;;;10314028;28;20433;-79
2022/04/17 16:03:50;;;;;;;1.95;1.40;;;13.80;17.30;;;;;;10314076;28;20202;-79
2022/04/17 16:09:12;;;;;;;5.88;3.70;;;13.80;17.10;;;;;;10337686;28;20220;-79
2022/04/17 16:14:33;;;;;;;4.13;2.30;;;13.90;17.30;;;;;;10359969;28;20443;-79
2022/04/17 16:19:55;;;;;;;3.78;1.85;;;13.80;16.90;;;;;;10343534;28;20520;-79
2022/04/17 16:25:16;;;;;;;5.15;3.08;;;13.60;17.40;;;;;;10321740;28;20271;-79
2022/04/17 16:30:37;;;;;;;3.63;2.10;;;13.40;17.50;;;;;;10307650;28;20232;-79
2022/04/17 16:35:59;;;;;;;4.18;2.53;;;;;;;;;;10322091;28;20237;-78
2022/04/17 16:41:21;;;;;;;3.53;1.90;;;13.00;17.60;;;;;;10322242;28;20399;-78
2022/04/17 16:46:42;;;;;;;4.55;2.25;;;;;;;;;;10307233;28;20204;-79
2022/04/17 16:52:04;;;;;;;3.28;2.10;;;12.60;18.50;;;;;;10319852;28;20228;-78
2022/04/17 17:03:06;;;;;;;4.15;2.63;;;12.30;19.70;;;;;;10320054;28;20206;-79
2022/04/17 17:08:31;;;;;;;4.18;2.40;;;12.30;20.20;;;;;;10319946;28;20206;-79
2022/04/17 17:13:53;;;;;;;8.20;3.92;;;12.10;20.30;;;;;;10366260;28;20549;-78
2022/04/17 17:19:16;;;;;;;7.47;4.30;;;11.90;20.70;;;;;;10334984;28;20460;-78
2022/04/17 17:24:37;;;;;;;11.90;6.15;;;11.70;21.00;;;;;;10360193;28;20355;-79
2022/04/17 17:29:59;;;;;;;10.38;4.93;;;11.60;21.70;;;;;;10345604;28;20459;-79
2022/04/17 17:35:21;;;;;;;7.78;4.20;;;11.50;22.10;;;;;;10359585;28;20310;-79
2022/04/17 17:40:42;;;;;;;26.65;11.25;;;11.30;22.40;;;;;;10360272;28;20215;-79
2022/04/17 17:46:04;;;;;;;13.93;6.82;;;11.20;22.70;;;;;;10359393;28;20197;-78
2022/04/17 17:51:27;;;;;;;5.80;3.50;;;11.10;22.90;;;;;;10295247;28;20234;-79
2022/04/17 17:56:50;;;;;;;14.73;6.60;;;10.90;23.40;;;;;;10279276;29;20198;-79
2022/04/17 18:02:14;;;;;;;11.43;7.07;;;10.80;23.70;;;;;;10278109;29;20222;-79
2022/04/17 18:18:56;;;;;;;10.63;6.63;;;10.20;25.20;;;;;;10320051;28;20280;-79
2022/04/17 18:24:17;;;;;;;14.17;6.20;;;9.90;25.40;;;;;;10318187;28;20414;-78
2022/04/17 18:29:39;;;;;;;13.23;6.83;;;9.80;25.40;;;;;;10333130;28;20201;-79
2022/04/17 18:35:00;;;;;;;6.70;3.90;;;9.70;25.30;;;;;;10330575;28;20308;-79
2022/04/17 18:40:22;;;;;;;4.70;2.70;;;9.50;25.00;;;;;;10332607;28;20200;-79
2022/04/17 18:45:43;;;;;;;6.67;4.10;;;9.30;25.00;;;;;;10317460;28;20276;-79
2022/04/17 18:51:04;;;;;;;12.70;6.80;;;9.20;26.10;;;;;;10331593;28;20531;-78
2022/04/17 18:56:26;;;;;;;6.40;4.73;;;8.90;34.60;;;;;;10315803;28;20393;-78
2022/04/17 19:01:47;;;;;;;9.33;4.60;;;8.70;46.10;;;;;;10329716;28;20193;-80
2022/04/17 19:07:09;;;;;;;8.10;4.40;;;8.70;52.80;;;;;;10315575;28;20191;-79
2022/04/17 19:18:12;;;;;;;9.00;5.07;;;8.40;63.30;;;;;;10220281;29;20219;-79
2022/04/17 19:23:34;;;;;;;9.50;5.87;;;8.20;69.20;;;;;;10185646;29;20258;-78
2022/04/17 19:28:57;;;;;;;10.33;5.70;;;8.00;75.00;;;;;;10193637;29;20210;-78
2022/04/17 19:39:58;;;;;;;9.63;5.20;;;7.80;81.30;;;;;;10179142;29;20294;-79
2022/04/17 19:45:22;;;;;;;8.50;4.97;;;;;;;;;;10177194;29;20293;-79
2022/04/17 19:50:44;;;;;;;6.57;4.17;;;7.50;81.30;;;;;;10163885;29;20246;-78
2022/04/17 19:56:05;;;;;;;5.93;3.80;;;7.40;80.70;;;;;;10271774;29;20573;-79
2022/04/17 20:01:27;;;;;;;6.30;4.10;;;7.40;77.50;;;;;;10287620;28;20195;-79
2022/04/17 20:06:48;;;;;;;6.53;3.97;;;7.30;77.20;;;;;;10273966;29;20228;-79
2022/04/17 20:12:11;;;;;;;11.80;5.63;;;7.20;77.00;;;;;;10324653;28;20223;-78
2022/04/17 20:17:32;;;;;;;19.77;8.60;;;7.10;77.40;;;;;;10357107;28;20252;-78
2022/04/17 20:22:54;;;;;;;21.07;8.63;;;6.90;75.50;;;;;;10316236;28;20212;-78
2022/04/17 20:28:15;;;;;;;26.77;11.03;;;6.80;75.20;;;;;;10316024;28;20340;-78
2022/04/17 20:33:37;;;;;;;34.13;12.17;;;;;;;;;;10313925;28;20234;-79
2022/04/17 20:38:58;;;;;;;27.43;11.33;;;6.70;78.10;;;;;;10313714;28;20244;-80
2022/04/17 20:55:40;;;;;;;16.77;6.47;;;6.60;83.40;;;;;;10328213;28;20199;-78
2022/04/17 21:01:01;;;;;;;15.90;6.77;;;6.40;77.90;;;;;;10337780;28;20273;-78
2022/04/17 21:06:24;;;;;;;17.63;6.37;;;6.30;79.20;;;;;;10327032;28;20249;-79
2022/04/17 21:11:46;;;;;;;8.50;4.27;;;6.30;82.20;;;;;;10338929;28;20275;-78
2022/04/17 21:17:07;;;;;;;7.20;4.10;;;6.30;82.80;;;;;;10355102;28;20197;-78
2022/04/17 21:22:29;;;;;;;8.23;3.90;;;6.10;86.60;;;;;;10335681;28;20266;-77
2022/04/17 21:27:50;;;;;;;8.37;4.07;;;6.10;90.30;;;;;;10347804;28;20211;-78
2022/04/17 21:33:12;;;;;;;10.73;5.40;;;6.00;90.90;;;;;;10360912;28;20226;-79
2022/04/17 21:38:33;;;;;;;13.50;7.20;;;5.80;92.40;;;;;;10347668;28;20310;-78
2022/04/17 21:43:56;;;;;;;17.87;8.83;;;5.80;93.90;;;;;;10376286;28;20203;-79
2022/04/17 21:49:18;;;;;;;12.37;7.70;;;5.70;94.90;;;;;;10337345;28;20193;-79
2022/04/17 21:54:40;;;;;;;8.57;5.87;;;5.60;95.90;;;;;;10322892;28;20517;-78
2022/04/17 22:05:48;;;;;;;14.87;6.77;;;5.50;95.50;;;;;;10342070;28;20254;-78
2022/04/17 22:11:09;;;;;;;14.83;7.10;;;;;;;;;;10325650;28;20223;-78
2022/04/17 22:16:31;;;;;;;12.10;7.00;;;;;;;;;;10355381;28;20395;-78
2022/04/17 22:21:52;;;;;;;11.13;6.17;;;5.20;96.60;;;;;;10374218;28;20274;-77
2022/04/17 22:27:15;;;;;;;10.93;5.63;;;5.30;97.20;;;;;;10379197;28;20215;-79
2022/04/17 22:32:37;;;;;;;16.03;7.80;;;5.30;98.30;;;;;;10381571;28;20309;-78
2022/04/17 22:37:58;;;;;;;20.03;10.23;;;5.30;99.00;;;;;;10395061;28;20239;-79
2022/04/17 22:43:19;;;;;;;27.07;13.50;;;5.30;98.80;;;;;;10356958;28;20276;-78
2022/04/17 22:48:41;;;;;;;31.23;14.10;;;5.20;98.30;;;;;;10339479;28;20267;-78
2022/04/17 22:54:02;;;;;;;32.77;14.33;;;5.00;98.90;;;;;;10302790;28;20223;-78
2022/04/17 22:59:23;;;;;;;26.07;12.47;;;5.00;99.20;;;;;;10317106;28;20199;-78
2022/04/17 23:04:45;;;;;;;27.10;12.77;;;5.00;99.50;;;;;;10302630;28;20219;-78
2022/04/17 23:10:07;;;;;;;25.77;11.33;;;4.90;99.90;;;;;;10323423;28;20201;-78
2022/04/17 23:15:28;;;;;;;29.00;11.00;;;4.80;99.90;;;;;;10368626;28;20238;-79
2022/04/17 23:20:50;;;;;;;28.20;12.67;;;4.60;99.90;;;;;;10342059;28;20512;-78
2022/04/17 23:26:11;;;;;;;27.20;13.67;;;4.50;99.90;;;;;;10369492;28;20200;-79
2022/04/17 23:31:32;;;;;;;26.43;12.33;;;4.40;99.90;;;;;;10371154;28;20450;-79
2022/04/17 23:36:54;;;;;;;25.47;12.43;;;4.30;99.90;;;;;;10371064;28;20265;-79
2022/04/17 23:42:15;;;;;;;31.07;14.67;;;4.30;99.90;;;;;;10368578;28;20189;-79
2022/04/17 23:47:37;;;;;;;23.07;12.47;;;4.20;99.90;;;;;;10361111;28;20198;-78
2022/04/17 23:52:59;;;;;;;18.13;10.50;;;4.20;99.90;;;;;;10298302;28;20324;-79
2022/04/17 23:58:20;;;;;;;17.57;10.07;;;4.10;99.90;;;;;;10300558;28;20221;-78
